sensor_id;sensor_type;location;lat;lon;timestamp;temperature;humidity
2024;DHT22;1016;48.770;9.154;2023-03-14T00:00:31;11.90;99.90
2024;DHT22;1016;48.770;9.154;2023-03-14T00:02:56;11.90;99.90
2024;DHT22;1016;48.770;9.154;2023-03-14T00:05:22;11.90;99.90
2024;DHT22;1016;48.770;9.154;2023-03-14T00:07:47;11.80;99.90
2024;DHT22;1016;48.770;9.154;2023-03-14T00:10:14;11.80;99.90
2024;DHT22;1016;48.770;9.154;2023-03-14T00:12:41;11.80;99.90
2024;DHT22;1016;48.770;9.154;2023-03-14T00:15:07;11.80;99.90
2024;DHT22;1016;48.770;9.154;2023-03-14T00:17:33;11.80;99.90
2024;DHT22;1016;48.770;9.154;2023-03-14T00:19:59;11.80;99.90
2024;DHT22;1016;48.770;9.154;2023-03-14T00:22:34;11.80;99.90
2024;DHT22;1016;48.770;9.154;2023-03-14T00:25:00;11.80;99.90
2024;DHT22;1016;48.770;9.154;2023-03-14T00:27:26;11.90;99.90
2024;DHT22;1016;48.770;9.154;2023-03-14T00:29:52;11.80;99.90
2024;DHT22;1016;48.770;9.154;2023-03-14T00:32:17;11.80;99.90
2024;DHT22;1016;48.770;9.154;2023-03-14T00:34:43;11.90;99.90
2024;DHT22;1016;48.770;9.154;2023-03-14T00:37:08;11.90;99.90
2024;DHT22;1016;48.770;9.154;2023-03-14T00:39:34;11.80;99.90
2024;DHT22;1016;48.770;9.154;2023-03-14T00:41:59;11.80;99.90
2024;DHT22;1016;48.770;9.154;2023-03-14T00:44:25;11.80;99.90
2024;DHT22;1016;48.770;9.154;2023-03-14T00:46:50;11.80;99.90
2024;DHT22;1016;48.770;9.154;2023-03-14T00:49:16;11.80;99.90
2024;DHT22;1016;48.770;9.154;2023-03-14T00:51:42;11.80;99.90
2024;DHT22;1016;48.770;9.154;2023-03-14T00:54:07;11.80;99.90
2024;DHT22;1016;48.770;9.154;2023-03-14T00:56:33;11.80;99.90
2024;DHT22;1016;48.770;9.154;2023-03-14T00:58:58;11.80;99.90
2024;DHT22;1016;48.770;9.154;2023-03-14T01:01:24;11.90;99.90
2024;DHT22;1016;48.770;9.154;2023-03-14T01:03:54;11.80;99.90
2024;DHT22;1016;48.770;9.154;2023-03-14T01:06:23;11.80;99.90
2024;DHT22;1016;48.770;9.154;2023-03-14T01:08:49;11.80;99.90
2024;DHT22;1016;48.770;9.154;2023-03-14T01:11:18;11.80;99.90
2024;DHT22;1016;48.770;9.154;2023-03-14T01:13:44;11.80;99.90
2024;DHT22;1016;48.770;9.154;2023-03-14T01:16:11;11.80;99.90
2024;DHT22;1016;48.770;9.154;2023-03-14T01:18:38;11.90;99.90
2024;DHT22;1016;48.770;9.154;2023-03-14T01:21:14;11.90;99.90
2024;DHT22;1016;48.770;9.154;2023-03-14T01:23:40;11.80;99.90
2024;DHT22;1016;48.770;9.154;2023-03-14T01:26:10;11.90;99.90
2024;DHT22;1016;48.770;9.154;2023-03-14T01:28:35;11.80;99.90
2024;DHT22;1016;48.770;9.154;2023-03-14T01:31:05;11.80;99.90
2024;DHT22;1016;48.770;9.154;2023-03-14T01:33:31;11.90;99.90
2024;DHT22;1016;48.770;9.154;2023-03-14T01:35:57;11.90;99.90
2024;DHT22;1016;48.770;9.154;2023-03-14T01:38:22;11.90;99.90
2024;DHT22;1016;48.770;9.154;2023-03-14T01:40:48;11.80;99.90
2024;DHT22;1016;48.770;9.154;2023-03-14T01:43:19;11.90;99.90
2024;DHT22;1016;48.770;9.154;2023-03-14T01:57:30;11.90;99.90
2024;DHT22;1016;48.770;9.154;2023-03-14T02:00:18;11.90;99.90
2024;DHT22;1016;48.770;9.154;2023-03-14T02:02:56;11.90;99.90
2024;DHT22;1016;48.770;9.154;2023-03-14T02:05:26;11.90;99.90
2024;DHT22;1016;48.770;9.154;2023-03-14T02:07:56;11.90;99.90
2024;DHT22;1016;48.770;9.154;2023-03-14T02:10:28;11.90;99.90
2024;DHT22;1016;48.770;9.154;2023-03-14T02:12:55;11.90;99.90
2024;DHT22;1016;48.770;9.154;2023-03-14T02:15:22;11.80;99.90
2024;DHT22;1016;48.770;9.154;2023-03-14T02:17:48;11.80;99.90
2024;DHT22;1016;48.770;9.154;2023-03-14T02:20:31;11.80;99.90
2024;DHT22;1016;48.770;9.154;2023-03-14T02:22:59;11.80;99.90
2024;DHT22;1016;48.770;9.154;2023-03-14T02:28:07;11.90;99.90
2024;DHT22;1016;48.770;9.154;2023-03-14T02:30:33;11.90;99.90
2024;DHT22;1016;48.770;9.154;2023-03-14T02:33:04;11.90;99.90
2024;DHT22;1016;48.770;9.154;2023-03-14T02:35:37;11.90;99.90
2024;DHT22;1016;48.770;9.154;2023-03-14T02:41:06;11.80;99.90
2024;DHT22;1016;48.770;9.154;2023-03-14T02:43:32;11.80;99.90
2024;DHT22;1016;48.770;9.154;2023-03-14T02:45:58;11.80;99.90
2024;DHT22;1016;48.770;9.154;2023-03-14T02:48:31;11.80;99.90
2024;DHT22;1016;48.770;9.154;2023-03-14T02:51:00;11.80;99.90
2024;DHT22;1016;48.770;9.154;2023-03-14T02:53:31;11.70;99.90
2024;DHT22;1016;48.770;9.154;2023-03-14T02:55:57;11.80;99.90
2024;DHT22;1016;48.770;9.154;2023-03-14T02:58:23;11.70;99.90
2024;DHT22;1016;48.770;9.154;2023-03-14T03:00:49;11.70;99.90
2024;DHT22;1016;48.770;9.154;2023-03-14T03:03:14;11.70;99.90
2024;DHT22;1016;48.770;9.154;2023-03-14T03:05:40;11.70;99.90
2024;DHT22;1016;48.770;9.154;2023-03-14T03:08:08;11.70;99.90
2024;DHT22;1016;48.770;9.154;2023-03-14T03:10:33;11.70;99.90
2024;DHT22;1016;48.770;9.154;2023-03-14T03:12:59;11.60;99.90
2024;DHT22;1016;48.770;9.154;2023-03-14T03:15:25;11.60;99.90
2024;DHT22;1016;48.770;9.154;2023-03-14T03:17:51;11.60;99.90
2024;DHT22;1016;48.770;9.154;2023-03-14T03:20:16;11.60;99.90
2024;DHT22;1016;48.770;9.154;2023-03-14T03:22:42;11.60;99.90
2024;DHT22;1016;48.770;9.154;2023-03-14T03:25:08;11.60;99.90
2024;DHT22;1016;48.770;9.154;2023-03-14T03:27:35;11.60;99.90
2024;DHT22;1016;48.770;9.154;2023-03-14T03:30:04;11.50;99.90
2024;DHT22;1016;48.770;9.154;2023-03-14T03:32:30;11.50;99.90
2024;DHT22;1016;48.770;9.154;2023-03-14T03:34:55;11.50;99.90
2024;DHT22;1016;48.770;9.154;2023-03-14T03:37:21;11.50;99.90
2024;DHT22;1016;48.770;9.154;2023-03-14T03:39:46;11.50;99.90
2024;DHT22;1016;48.770;9.154;2023-03-14T03:42:12;11.50;99.90
2024;DHT22;1016;48.770;9.154;2023-03-14T03:44:37;11.50;99.90
2024;DHT22;1016;48.770;9.154;2023-03-14T03:47:03;11.50;99.90
2024;DHT22;1016;48.770;9.154;2023-03-14T03:49:30;11.40;99.90
2024;DHT22;1016;48.770;9.154;2023-03-14T03:51:56;11.40;99.90
2024;DHT22;1016;48.770;9.154;2023-03-14T03:54:21;11.40;99.90
2024;DHT22;1016;48.770;9.154;2023-03-14T03:56:47;11.40;99.90
2024;DHT22;1016;48.770;9.154;2023-03-14T03:59:12;11.40;99.90
2024;DHT22;1016;48.770;9.154;2023-03-14T04:01:38;11.40;99.90
2024;DHT22;1016;48.770;9.154;2023-03-14T04:04:03;11.40;99.90
2024;DHT22;1016;48.770;9.154;2023-03-14T04:06:29;11.40;99.90
2024;DHT22;1016;48.770;9.154;2023-03-14T04:08:54;11.40;99.90
2024;DHT22;1016;48.770;9.154;2023-03-14T04:11:20;11.40;99.90
2024;DHT22;1016;48.770;9.154;2023-03-14T04:13:45;11.40;99.90
2024;DHT22;1016;48.770;9.154;2023-03-14T04:16:15;11.30;99.90
2024;DHT22;1016;48.770;9.154;2023-03-14T04:18:41;11.30;99.90
2024;DHT22;1016;48.770;9.154;2023-03-14T04:21:07;11.30;99.90
2024;DHT22;1016;48.770;9.154;2023-03-14T04:23:32;11.30;99.90
2024;DHT22;1016;48.770;9.154;2023-03-14T04:25:58;11.20;99.90
2024;DHT22;1016;48.770;9.154;2023-03-14T04:28:24;11.20;99.90
2024;DHT22;1016;48.770;9.154;2023-03-14T04:30:50;11.20;99.90
2024;DHT22;1016;48.770;9.154;2023-03-14T04:33:15;11.20;99.90
2024;DHT22;1016;48.770;9.154;2023-03-14T04:35:43;11.20;99.90
2024;DHT22;1016;48.770;9.154;2023-03-14T04:38:08;11.30;99.90
2024;DHT22;1016;48.770;9.154;2023-03-14T04:40:39;11.30;99.90
2024;DHT22;1016;48.770;9.154;2023-03-14T04:43:05;11.30;99.90
2024;DHT22;1016;48.770;9.154;2023-03-14T04:45:31;11.30;99.90
2024;DHT22;1016;48.770;9.154;2023-03-14T04:47:56;11.30;99.90
2024;DHT22;1016;48.770;9.154;2023-03-14T04:50:22;11.30;99.90
2024;DHT22;1016;48.770;9.154;2023-03-14T04:52:48;11.30;99.90
2024;DHT22;1016;48.770;9.154;2023-03-14T04:55:13;11.20;99.90
2024;DHT22;1016;48.770;9.154;2023-03-14T04:57:39;11.30;99.90
2024;DHT22;1016;48.770;9.154;2023-03-14T05:00:05;11.30;99.90
2024;DHT22;1016;48.770;9.154;2023-03-14T05:02:34;11.30;99.90
2024;DHT22;1016;48.770;9.154;2023-03-14T05:05:00;11.30;99.90
2024;DHT22;1016;48.770;9.154;2023-03-14T05:07:25;11.30;99.90
2024;DHT22;1016;48.770;9.154;2023-03-14T05:09:51;11.30;99.90
2024;DHT22;1016;48.770;9.154;2023-03-14T05:12:18;11.30;99.90
2024;DHT22;1016;48.770;9.154;2023-03-14T05:14:44;11.30;99.90
2024;DHT22;1016;48.770;9.154;2023-03-14T05:17:10;11.30;99.90
2024;DHT22;1016;48.770;9.154;2023-03-14T05:19:35;11.30;99.90
2024;DHT22;1016;48.770;9.154;2023-03-14T05:22:01;11.30;99.90
2024;DHT22;1016;48.770;9.154;2023-03-14T05:24:26;11.30;99.90
2024;DHT22;1016;48.770;9.154;2023-03-14T05:26:53;11.30;99.90
2024;DHT22;1016;48.770;9.154;2023-03-14T05:29:18;11.30;99.90
2024;DHT22;1016;48.770;9.154;2023-03-14T05:31:44;11.20;99.90
2024;DHT22;1016;48.770;9.154;2023-03-14T05:34:09;11.30;99.90
2024;DHT22;1016;48.770;9.154;2023-03-14T05:36:35;11.20;99.90
2024;DHT22;1016;48.770;9.154;2023-03-14T05:39:00;11.20;99.90
2024;DHT22;1016;48.770;9.154;2023-03-14T05:41:26;11.20;99.90
2024;DHT22;1016;48.770;9.154;2023-03-14T05:43:51;11.20;99.90
2024;DHT22;1016;48.770;9.154;2023-03-14T05:46:18;11.20;99.90
2024;DHT22;1016;48.770;9.154;2023-03-14T05:48:43;11.20;99.90
2024;DHT22;1016;48.770;9.154;2023-03-14T05:51:09;11.20;99.90
2024;DHT22;1016;48.770;9.154;2023-03-14T05:53:34;11.20;99.90
2024;DHT22;1016;48.770;9.154;2023-03-14T05:56:00;11.20;99.90
2024;DHT22;1016;48.770;9.154;2023-03-14T05:58:25;11.20;99.90
2024;DHT22;1016;48.770;9.154;2023-03-14T06:00:51;11.20;99.90
2024;DHT22;1016;48.770;9.154;2023-03-14T06:03:17;11.20;99.90
2024;DHT22;1016;48.770;9.154;2023-03-14T06:05:42;11.20;99.90
2024;DHT22;1016;48.770;9.154;2023-03-14T06:08:08;11.20;99.90
2024;DHT22;1016;48.770;9.154;2023-03-14T06:10:35;11.20;99.90
2024;DHT22;1016;48.770;9.154;2023-03-14T06:13:01;11.30;99.90
2024;DHT22;1016;48.770;9.154;2023-03-14T06:15:26;11.30;99.90
2024;DHT22;1016;48.770;9.154;2023-03-14T06:17:54;11.30;99.90
2024;DHT22;1016;48.770;9.154;2023-03-14T06:20:20;11.30;99.90
2024;DHT22;1016;48.770;9.154;2023-03-14T06:22:45;11.30;99.90
2024;DHT22;1016;48.770;9.154;2023-03-14T06:25:11;11.20;99.90
2024;DHT22;1016;48.770;9.154;2023-03-14T06:27:36;11.20;99.90
2024;DHT22;1016;48.770;9.154;2023-03-14T06:30:02;11.20;99.90
2024;DHT22;1016;48.770;9.154;2023-03-14T06:32:28;11.10;99.90
2024;DHT22;1016;48.770;9.154;2023-03-14T06:34:53;11.20;99.90
2024;DHT22;1016;48.770;9.154;2023-03-14T06:37:19;11.10;99.90
2024;DHT22;1016;48.770;9.154;2023-03-14T06:39:44;11.20;99.90
2024;DHT22;1016;48.770;9.154;2023-03-14T06:42:10;11.10;99.90
2024;DHT22;1016;48.770;9.154;2023-03-14T06:44:35;11.20;99.90
2024;DHT22;1016;48.770;9.154;2023-03-14T06:47:01;11.00;99.90
2024;DHT22;1016;48.770;9.154;2023-03-14T06:49:26;11.00;99.90
2024;DHT22;1016;48.770;9.154;2023-03-14T06:51:52;11.00;99.90
2024;DHT22;1016;48.770;9.154;2023-03-14T06:54:17;11.10;99.90
2024;DHT22;1016;48.770;9.154;2023-03-14T06:56:43;11.10;99.90
2024;DHT22;1016;48.770;9.154;2023-03-14T06:59:09;11.10;99.90
2024;DHT22;1016;48.770;9.154;2023-03-14T07:01:34;11.20;99.90
2024;DHT22;1016;48.770;9.154;2023-03-14T07:04:00;11.20;99.90
2024;DHT22;1016;48.770;9.154;2023-03-14T07:06:26;11.30;99.90
2024;DHT22;1016;48.770;9.154;2023-03-14T07:08:54;11.30;99.90
2024;DHT22;1016;48.770;9.154;2023-03-14T07:11:20;11.40;99.90
2024;DHT22;1016;48.770;9.154;2023-03-14T07:13:46;11.40;99.90
2024;DHT22;1016;48.770;9.154;2023-03-14T07:16:11;11.50;99.90
2024;DHT22;1016;48.770;9.154;2023-03-14T07:18:37;11.50;99.90
2024;DHT22;1016;48.770;9.154;2023-03-14T07:21:04;11.60;99.90
2024;DHT22;1016;48.770;9.154;2023-03-14T07:23:29;11.70;99.90
2024;DHT22;1016;48.770;9.154;2023-03-14T07:25:56;11.70;99.90
2024;DHT22;1016;48.770;9.154;2023-03-14T07:28:21;11.70;99.90
2024;DHT22;1016;48.770;9.154;2023-03-14T07:30:48;11.80;99.90
2024;DHT22;1016;48.770;9.154;2023-03-14T07:33:13;11.80;99.90
2024;DHT22;1016;48.770;9.154;2023-03-14T07:35:39;11.80;99.90
2024;DHT22;1016;48.770;9.154;2023-03-14T07:38:04;11.90;99.90
2024;DHT22;1016;48.770;9.154;2023-03-14T07:40:30;12.00;99.90
2024;DHT22;1016;48.770;9.154;2023-03-14T07:42:55;12.00;99.90
2024;DHT22;1016;48.770;9.154;2023-03-14T07:45:21;12.00;99.90
2024;DHT22;1016;48.770;9.154;2023-03-14T07:47:47;12.10;99.90
2024;DHT22;1016;48.770;9.154;2023-03-14T07:50:12;12.10;99.90
2024;DHT22;1016;48.770;9.154;2023-03-14T07:52:38;12.20;99.90
2024;DHT22;1016;48.770;9.154;2023-03-14T07:55:04;12.30;99.90
2024;DHT22;1016;48.770;9.154;2023-03-14T07:57:29;12.30;99.90
2024;DHT22;1016;48.770;9.154;2023-03-14T07:59:55;12.40;99.90
2024;DHT22;1016;48.770;9.154;2023-03-14T08:02:20;12.40;99.90
2024;DHT22;1016;48.770;9.154;2023-03-14T08:04:47;12.40;99.90
2024;DHT22;1016;48.770;9.154;2023-03-14T08:07:13;12.50;99.90
2024;DHT22;1016;48.770;9.154;2023-03-14T08:09:39;12.60;99.90
2024;DHT22;1016;48.770;9.154;2023-03-14T08:12:04;12.60;99.90
2024;DHT22;1016;48.770;9.154;2023-03-14T08:14:30;12.70;99.90
2024;DHT22;1016;48.770;9.154;2023-03-14T08:16:56;12.70;99.90
2024;DHT22;1016;48.770;9.154;2023-03-14T08:19:22;12.70;99.90
2024;DHT22;1016;48.770;9.154;2023-03-14T08:21:47;12.80;99.90
2024;DHT22;1016;48.770;9.154;2023-03-14T08:24:13;12.80;99.90
2024;DHT22;1016;48.770;9.154;2023-03-14T08:26:38;12.90;99.90
2024;DHT22;1016;48.770;9.154;2023-03-14T08:29:04;13.00;99.90
2024;DHT22;1016;48.770;9.154;2023-03-14T08:31:30;13.00;99.90
2024;DHT22;1016;48.770;9.154;2023-03-14T08:33:58;13.00;99.90
2024;DHT22;1016;48.770;9.154;2023-03-14T08:36:25;13.10;99.90
2024;DHT22;1016;48.770;9.154;2023-03-14T08:38:50;13.20;99.90
2024;DHT22;1016;48.770;9.154;2023-03-14T08:41:16;13.20;99.90
2024;DHT22;1016;48.770;9.154;2023-03-14T08:43:42;13.10;99.90
2024;DHT22;1016;48.770;9.154;2023-03-14T08:46:07;13.20;99.90
2024;DHT22;1016;48.770;9.154;2023-03-14T08:48:33;13.20;99.90
2024;DHT22;1016;48.770;9.154;2023-03-14T08:51:10;13.20;99.90
2024;DHT22;1016;48.770;9.154;2023-03-14T08:53:36;13.20;99.90
2024;DHT22;1016;48.770;9.154;2023-03-14T08:56:02;13.10;99.90
2024;DHT22;1016;48.770;9.154;2023-03-14T08:58:27;13.20;99.90
2024;DHT22;1016;48.770;9.154;2023-03-14T09:00:54;13.30;99.90
2024;DHT22;1016;48.770;9.154;2023-03-14T09:03:20;13.30;99.90
2024;DHT22;1016;48.770;9.154;2023-03-14T09:05:48;13.40;99.90
2024;DHT22;1016;48.770;9.154;2023-03-14T09:08:14;13.40;99.90
2024;DHT22;1016;48.770;9.154;2023-03-14T09:10:40;13.50;99.90
2024;DHT22;1016;48.770;9.154;2023-03-14T09:13:05;13.60;99.90
2024;DHT22;1016;48.770;9.154;2023-03-14T09:15:31;13.60;99.90
2024;DHT22;1016;48.770;9.154;2023-03-14T09:17:57;13.50;99.90
2024;DHT22;1016;48.770;9.154;2023-03-14T09:20:23;13.50;99.90
2024;DHT22;1016;48.770;9.154;2023-03-14T09:22:48;13.60;99.90
2024;DHT22;1016;48.770;9.154;2023-03-14T09:25:14;13.50;99.90
2024;DHT22;1016;48.770;9.154;2023-03-14T09:27:40;13.50;99.90
2024;DHT22;1016;48.770;9.154;2023-03-14T09:30:05;13.50;99.90
2024;DHT22;1016;48.770;9.154;2023-03-14T09:32:31;13.60;99.90
2024;DHT22;1016;48.770;9.154;2023-03-14T09:34:57;13.60;99.90
2024;DHT22;1016;48.770;9.154;2023-03-14T09:37:23;13.60;99.90
2024;DHT22;1016;48.770;9.154;2023-03-14T09:39:48;13.60;99.90
2024;DHT22;1016;48.770;9.154;2023-03-14T09:42:19;13.60;99.90
2024;DHT22;1016;48.770;9.154;2023-03-14T09:45:07;13.70;99.90
2024;DHT22;1016;48.770;9.154;2023-03-14T09:47:36;13.60;99.90
2024;DHT22;1016;48.770;9.154;2023-03-14T09:50:01;13.60;99.90
2024;DHT22;1016;48.770;9.154;2023-03-14T09:52:31;13.60;99.90
2024;DHT22;1016;48.770;9.154;2023-03-14T09:55:01;13.60;99.90
2024;DHT22;1016;48.770;9.154;2023-03-14T09:57:27;13.70;99.90
2024;DHT22;1016;48.770;9.154;2023-03-14T09:59:57;13.50;99.90
2024;DHT22;1016;48.770;9.154;2023-03-14T10:02:33;13.60;99.90
2024;DHT22;1016;48.770;9.154;2023-03-14T10:05:00;13.60;99.90
2024;DHT22;1016;48.770;9.154;2023-03-14T10:07:30;13.60;99.90
2024;DHT22;1016;48.770;9.154;2023-03-14T10:09:56;13.60;99.90
2024;DHT22;1016;48.770;9.154;2023-03-14T10:12:33;13.60;99.90
2024;DHT22;1016;48.770;9.154;2023-03-14T10:15:10;13.50;99.90
2024;DHT22;1016;48.770;9.154;2023-03-14T10:17:44;13.50;99.90
2024;DHT22;1016;48.770;9.154;2023-03-14T10:20:42;13.50;99.90
2024;DHT22;1016;48.770;9.154;2023-03-14T10:25:38;13.70;99.90
2024;DHT22;1016;48.770;9.154;2023-03-14T10:28:09;13.80;99.90
2024;DHT22;1016;48.770;9.154;2023-03-14T10:30:44;13.90;99.90
2024;DHT22;1016;48.770;9.154;2023-03-14T10:33:31;13.90;99.90
2024;DHT22;1016;48.770;9.154;2023-03-14T10:38:33;13.80;99.90
2024;DHT22;1016;48.770;9.154;2023-03-14T10:40:59;13.90;99.90
2024;DHT22;1016;48.770;9.154;2023-03-14T10:43:34;13.90;99.90
2024;DHT22;1016;48.770;9.154;2023-03-14T10:46:09;13.90;99.90
2024;DHT22;1016;48.770;9.154;2023-03-14T10:48:37;14.00;99.90
2024;DHT22;1016;48.770;9.154;2023-03-14T10:51:22;14.10;99.90
2024;DHT22;1016;48.770;9.154;2023-03-14T10:56:23;14.10;99.90
2024;DHT22;1016;48.770;9.154;2023-03-14T10:58:50;14.20;99.90
2024;DHT22;1016;48.770;9.154;2023-03-14T11:04:29;14.30;99.90
2024;DHT22;1016;48.770;9.154;2023-03-14T11:18:16;13.90;99.90
2024;DHT22;1016;48.770;9.154;2023-03-14T11:20:52;13.80;99.90
2024;DHT22;1016;48.770;9.154;2023-03-14T11:26:32;13.60;99.90
2024;DHT22;1016;48.770;9.154;2023-03-14T11:31:56;13.40;99.90
2024;DHT22;1016;48.770;9.154;2023-03-14T11:34:28;13.30;99.90
2024;DHT22;1016;48.770;9.154;2023-03-14T11:39:45;13.30;99.90
2024;DHT22;1016;48.770;9.154;2023-03-14T11:42:16;13.20;99.90
2024;DHT22;1016;48.770;9.154;2023-03-14T11:44:48;13.20;99.90
2024;DHT22;1016;48.770;9.154;2023-03-14T11:47:21;13.30;99.90
2024;DHT22;1016;48.770;9.154;2023-03-14T11:53:34;13.10;99.90
2024;DHT22;1016;48.770;9.154;2023-03-14T11:58:01;13.30;99.90
2024;DHT22;1016;48.770;9.154;2023-03-14T12:00:28;13.30;99.90
2024;DHT22;1016;48.770;9.154;2023-03-14T12:08:36;13.50;99.90
2024;DHT22;1016;48.770;9.154;2023-03-14T12:13:39;13.40;99.90
2024;DHT22;1016;48.770;9.154;2023-03-14T12:16:35;13.20;99.90
2024;DHT22;1016;48.770;9.154;2023-03-14T12:24:23;13.00;99.90
2024;DHT22;1016;48.770;9.154;2023-03-14T12:26:58;13.10;99.90
2024;DHT22;1016;48.770;9.154;2023-03-14T12:29:24;13.00;99.90
2024;DHT22;1016;48.770;9.154;2023-03-14T12:32:09;12.80;99.90
2024;DHT22;1016;48.770;9.154;2023-03-14T12:34:40;12.80;99.90
2024;DHT22;1016;48.770;9.154;2023-03-14T12:37:29;12.60;99.90
2024;DHT22;1016;48.770;9.154;2023-03-14T12:42:58;12.90;99.90
2024;DHT22;1016;48.770;9.154;2023-03-14T12:45:34;13.70;99.90
2024;DHT22;1016;48.770;9.154;2023-03-14T12:48:29;13.90;99.90
2024;DHT22;1016;48.770;9.154;2023-03-14T12:51:00;14.50;99.90
2024;DHT22;1016;48.770;9.154;2023-03-14T12:56:40;14.30;99.90
2024;DHT22;1016;48.770;9.154;2023-03-14T12:59:13;14.10;99.90
2024;DHT22;1016;48.770;9.154;2023-03-14T13:01:54;13.70;99.90
2024;DHT22;1016;48.770;9.154;2023-03-14T13:04:27;13.50;99.90
2024;DHT22;1016;48.770;9.154;2023-03-14T13:06:55;13.60;99.90
2024;DHT22;1016;48.770;9.154;2023-03-14T13:12:09;13.30;99.90
2024;DHT22;1016;48.770;9.154;2023-03-14T13:14:40;13.20;99.80
2024;DHT22;1016;48.770;9.154;2023-03-14T13:17:11;12.80;99.40
2024;DHT22;1016;48.770;9.154;2023-03-14T13:19:37;12.80;99.10
2024;DHT22;1016;48.770;9.154;2023-03-14T13:22:06;12.80;98.90
2024;DHT22;1016;48.770;9.154;2023-03-14T13:24:39;12.60;97.80
2024;DHT22;1016;48.770;9.154;2023-03-14T13:27:05;12.60;98.00
2024;DHT22;1016;48.770;9.154;2023-03-14T13:29:41;12.60;97.90
2024;DHT22;1016;48.770;9.154;2023-03-14T13:32:19;12.40;97.30
2024;DHT22;1016;48.770;9.154;2023-03-14T13:34:45;12.40;96.60
2024;DHT22;1016;48.770;9.154;2023-03-14T13:37:21;12.10;96.50
2024;DHT22;1016;48.770;9.154;2023-03-14T13:39:52;12.20;95.90
2024;DHT22;1016;48.770;9.154;2023-03-14T13:42:18;12.30;95.80
2024;DHT22;1016;48.770;9.154;2023-03-14T13:44:44;12.20;96.00
2024;DHT22;1016;48.770;9.154;2023-03-14T13:47:15;12.20;96.30
2024;DHT22;1016;48.770;9.154;2023-03-14T13:49:41;12.50;95.50
2024;DHT22;1016;48.770;9.154;2023-03-14T13:52:40;12.30;94.80
2024;DHT22;1016;48.770;9.154;2023-03-14T13:55:13;12.10;95.60
2024;DHT22;1016;48.770;9.154;2023-03-14T13:57:47;12.10;95.20
2024;DHT22;1016;48.770;9.154;2023-03-14T14:00:18;12.00;95.10
2024;DHT22;1016;48.770;9.154;2023-03-14T14:02:44;11.90;93.80
2024;DHT22;1016;48.770;9.154;2023-03-14T14:05:13;11.70;93.50
2024;DHT22;1016;48.770;9.154;2023-03-14T14:07:39;11.70;92.80
2024;DHT22;1016;48.770;9.154;2023-03-14T14:10:06;11.60;92.40
2024;DHT22;1016;48.770;9.154;2023-03-14T14:12:39;11.60;91.50
2024;DHT22;1016;48.770;9.154;2023-03-14T14:15:31;11.60;91.50
2024;DHT22;1016;48.770;9.154;2023-03-14T14:18:02;11.60;90.50
2024;DHT22;1016;48.770;9.154;2023-03-14T14:20:34;11.60;89.60
2024;DHT22;1016;48.770;9.154;2023-03-14T14:23:02;11.50;90.00
2024;DHT22;1016;48.770;9.154;2023-03-14T14:25:29;11.40;89.80
2024;DHT22;1016;48.770;9.154;2023-03-14T14:27:54;11.40;88.80
2024;DHT22;1016;48.770;9.154;2023-03-14T14:32:48;11.20;89.30
2024;DHT22;1016;48.770;9.154;2023-03-14T14:35:26;11.20;88.90
2024;DHT22;1016;48.770;9.154;2023-03-14T14:37:56;11.20;87.70
2024;DHT22;1016;48.770;9.154;2023-03-14T14:40:24;11.10;88.00
2024;DHT22;1016;48.770;9.154;2023-03-14T14:42:50;10.90;88.10
2024;DHT22;1016;48.770;9.154;2023-03-14T14:45:19;10.90;89.30
2024;DHT22;1016;48.770;9.154;2023-03-14T14:48:03;10.80;90.00
2024;DHT22;1016;48.770;9.154;2023-03-14T14:50:32;10.70;89.10
2024;DHT22;1016;48.770;9.154;2023-03-14T14:53:00;10.60;90.00
2024;DHT22;1016;48.770;9.154;2023-03-14T14:55:34;10.60;89.90
2024;DHT22;1016;48.770;9.154;2023-03-14T15:01:13;10.30;90.00
2024;DHT22;1016;48.770;9.154;2023-03-14T15:03:37;10.40;90.70
2024;DHT22;1016;48.770;9.154;2023-03-14T15:06:04;10.50;90.50
2024;DHT22;1016;48.770;9.154;2023-03-14T15:08:30;10.50;90.30
2024;DHT22;1016;48.770;9.154;2023-03-14T15:10:56;10.50;90.30
2024;DHT22;1016;48.770;9.154;2023-03-14T15:13:22;10.50;90.60
2024;DHT22;1016;48.770;9.154;2023-03-14T15:15:50;10.80;90.40
2024;DHT22;1016;48.770;9.154;2023-03-14T15:18:24;10.90;90.60
2024;DHT22;1016;48.770;9.154;2023-03-14T15:20:50;11.20;90.30
2024;DHT22;1016;48.770;9.154;2023-03-14T15:23:18;11.60;90.40
2024;DHT22;1016;48.770;9.154;2023-03-14T15:25:45;12.20;89.80
2024;DHT22;1016;48.770;9.154;2023-03-14T15:28:16;12.20;86.80
2024;DHT22;1016;48.770;9.154;2023-03-14T15:30:42;11.90;86.30
2024;DHT22;1016;48.770;9.154;2023-03-14T15:33:08;11.70;86.90
2024;DHT22;1016;48.770;9.154;2023-03-14T15:35:37;11.50;87.40
2024;DHT22;1016;48.770;9.154;2023-03-14T15:38:03;11.40;88.20
2024;DHT22;1016;48.770;9.154;2023-03-14T15:40:29;11.20;87.60
2024;DHT22;1016;48.770;9.154;2023-03-14T15:42:54;11.10;88.40
2024;DHT22;1016;48.770;9.154;2023-03-14T15:45:20;11.10;88.60
2024;DHT22;1016;48.770;9.154;2023-03-14T15:47:45;11.00;89.20
2024;DHT22;1016;48.770;9.154;2023-03-14T15:50:11;11.00;89.30
2024;DHT22;1016;48.770;9.154;2023-03-14T15:52:36;10.90;89.80
2024;DHT22;1016;48.770;9.154;2023-03-14T15:55:02;10.90;90.10
2024;DHT22;1016;48.770;9.154;2023-03-14T15:57:28;11.00;90.40
2024;DHT22;1016;48.770;9.154;2023-03-14T15:59:53;11.00;90.20
2024;DHT22;1016;48.770;9.154;2023-03-14T16:02:19;11.00;90.00
2024;DHT22;1016;48.770;9.154;2023-03-14T16:04:44;10.90;90.10
2024;DHT22;1016;48.770;9.154;2023-03-14T16:07:10;10.90;90.60
2024;DHT22;1016;48.770;9.154;2023-03-14T16:09:36;10.90;90.40
2024;DHT22;1016;48.770;9.154;2023-03-14T16:12:02;10.80;90.70
2024;DHT22;1016;48.770;9.154;2023-03-14T16:14:29;10.80;90.80
2024;DHT22;1016;48.770;9.154;2023-03-14T16:16:55;10.80;90.80
2024;DHT22;1016;48.770;9.154;2023-03-14T16:19:26;10.70;91.10
2024;DHT22;1016;48.770;9.154;2023-03-14T16:21:56;10.80;91.80
2024;DHT22;1016;48.770;9.154;2023-03-14T16:24:21;10.80;91.90
2024;DHT22;1016;48.770;9.154;2023-03-14T16:26:47;10.80;91.80
2024;DHT22;1016;48.770;9.154;2023-03-14T16:29:13;10.80;91.90
2024;DHT22;1016;48.770;9.154;2023-03-14T16:31:38;10.80;92.10
2024;DHT22;1016;48.770;9.154;2023-03-14T16:34:08;10.80;92.10
2024;DHT22;1016;48.770;9.154;2023-03-14T16:36:33;10.80;92.00
2024;DHT22;1016;48.770;9.154;2023-03-14T16:38:59;10.80;91.90
2024;DHT22;1016;48.770;9.154;2023-03-14T16:41:24;10.80;92.10
2024;DHT22;1016;48.770;9.154;2023-03-14T16:43:53;10.80;92.50
2024;DHT22;1016;48.770;9.154;2023-03-14T16:46:20;10.80;92.30
2024;DHT22;1016;48.770;9.154;2023-03-14T16:48:46;10.80;92.30
2024;DHT22;1016;48.770;9.154;2023-03-14T16:51:12;10.80;92.00
2024;DHT22;1016;48.770;9.154;2023-03-14T16:53:39;10.70;92.00
2024;DHT22;1016;48.770;9.154;2023-03-14T16:56:04;10.70;92.20
2024;DHT22;1016;48.770;9.154;2023-03-14T16:58:30;10.60;92.40
2024;DHT22;1016;48.770;9.154;2023-03-14T17:00:56;10.60;92.50
2024;DHT22;1016;48.770;9.154;2023-03-14T17:03:22;10.50;93.00
2024;DHT22;1016;48.770;9.154;2023-03-14T17:05:50;10.60;92.70
2024;DHT22;1016;48.770;9.154;2023-03-14T17:08:17;10.50;92.90
2024;DHT22;1016;48.770;9.154;2023-03-14T17:10:44;10.60;93.20
2024;DHT22;1016;48.770;9.154;2023-03-14T17:13:10;10.60;93.40
2024;DHT22;1016;48.770;9.154;2023-03-14T17:15:36;10.60;93.10
2024;DHT22;1016;48.770;9.154;2023-03-14T17:18:02;10.60;93.50
2024;DHT22;1016;48.770;9.154;2023-03-14T17:20:28;10.70;93.60
2024;DHT22;1016;48.770;9.154;2023-03-14T17:22:54;10.70;93.80
2024;DHT22;1016;48.770;9.154;2023-03-14T17:25:20;10.70;93.90
2024;DHT22;1016;48.770;9.154;2023-03-14T17:27:45;10.70;94.00